sensor_id;sensor_type;location;lat;lon;timestamp;P1;durP1;ratioP1;P2;durP2;ratioP2
60917;SDS011;46792;38.854;-9.384;2022-11-20T00:00:02;9.95;;;2.50;;
60917;SDS011;46792;38.854;-9.384;2022-11-20T00:02:07;10.23;;;2.58;;
60917;SDS011;46792;38.854;-9.384;2022-11-20T00:04:08;15.90;;;3.33;;
60917;SDS011;46792;38.854;-9.384;2022-11-20T00:06:16;14.75;;;2.47;;
60917;SDS011;46792;38.854;-9.384;2022-11-20T00:08:18;6.60;;;2.08;;
60917;SDS011;46792;38.854;-9.384;2022-11-20T00:10:19;5.35;;;1.83;;
60917;SDS011;46792;38.854;-9.384;2022-11-20T00:12:19;6.60;;;1.77;;
60917;SDS011;46792;38.854;-9.384;2022-11-20T00:14:38;7.70;;;1.80;;
60917;SDS011;46792;38.854;-9.384;2022-11-20T00:16:39;7.68;;;2.75;;
60917;SDS011;46792;38.854;-9.384;2022-11-20T00:18:39;5.32;;;1.38;;
60917;SDS011;46792;38.854;-9.384;2022-11-20T00:20:43;8.20;;;1.73;;
60917;SDS011;46792;38.854;-9.384;2022-11-20T00:22:44;14.98;;;2.17;;
60917;SDS011;46792;38.854;-9.384;2022-11-20T00:24:46;10.10;;;1.75;;
60917;SDS011;46792;38.854;-9.384;2022-11-20T00:26:46;10.18;;;1.60;;
60917;SDS011;46792;38.854;-9.384;2022-11-20T00:28:51;6.55;;;1.48;;
60917;SDS011;46792;38.854;-9.384;2022-11-20T00:31:09;4.95;;;1.50;;
60917;SDS011;46792;38.854;-9.384;2022-11-20T00:33:14;11.60;;;2.40;;
60917;SDS011;46792;38.854;-9.384;2022-11-20T00:35:14;7.43;;;2.38;;
60917;SDS011;46792;38.854;-9.384;2022-11-20T00:37:15;12.35;;;1.83;;
60917;SDS011;46792;38.854;-9.384;2022-11-20T00:39:16;12.43;;;2.00;;
60917;SDS011;46792;38.854;-9.384;2022-11-20T00:41:16;7.25;;;1.80;;
60917;SDS011;46792;38.854;-9.384;2022-11-20T00:43:17;12.85;;;2.90;;
60917;SDS011;46792;38.854;-9.384;2022-11-20T00:45:36;9.13;;;2.58;;
60917;SDS011;46792;38.854;-9.384;2022-11-20T00:47:54;9.77;;;3.03;;
60917;SDS011;46792;38.854;-9.384;2022-11-20T00:49:54;8.13;;;2.63;;
60917;SDS011;46792;38.854;-9.384;2022-11-20T00:51:55;15.95;;;2.30;;
60917;SDS011;46792;38.854;-9.384;2022-11-20T00:53:56;6.63;;;1.77;;
60917;SDS011;46792;38.854;-9.384;2022-11-20T00:55:58;9.25;;;1.73;;
60917;SDS011;46792;38.854;-9.384;2022-11-20T00:58:00;4.10;;;1.38;;
60917;SDS011;46792;38.854;-9.384;2022-11-20T01:00:01;11.65;;;1.80;;
60917;SDS011;46792;38.854;-9.384;2022-11-20T01:02:02;8.82;;;1.42;;
60917;SDS011;46792;38.854;-9.384;2022-11-20T01:04:02;6.43;;;1.50;;
60917;SDS011;46792;38.854;-9.384;2022-11-20T01:06:05;6.45;;;1.80;;
60917;SDS011;46792;38.854;-9.384;2022-11-20T01:08:07;16.30;;;2.45;;
60917;SDS011;46792;38.854;-9.384;2022-11-20T01:10:08;11.82;;;2.20;;
60917;SDS011;46792;38.854;-9.384;2022-11-20T01:12:08;17.25;;;1.83;;
60917;SDS011;46792;38.854;-9.384;2022-11-20T01:14:10;11.50;;;1.92;;
60917;SDS011;46792;38.854;-9.384;2022-11-20T01:16:21;8.68;;;2.35;;
60917;SDS011;46792;38.854;-9.384;2022-11-20T01:18:23;12.45;;;2.30;;
60917;SDS011;46792;38.854;-9.384;2022-11-20T01:20:23;9.60;;;2.50;;
60917;SDS011;46792;38.854;-9.384;2022-11-20T01:22:42;11.80;;;2.45;;
60917;SDS011;46792;38.854;-9.384;2022-11-20T01:24:43;7.75;;;2.00;;
60917;SDS011;46792;38.854;-9.384;2022-11-20T01:26:44;18.77;;;3.38;;
60917;SDS011;46792;38.854;-9.384;2022-11-20T01:28:45;12.75;;;3.05;;
60917;SDS011;46792;38.854;-9.384;2022-11-20T01:30:46;12.95;;;2.72;;
60917;SDS011;46792;38.854;-9.384;2022-11-20T01:32:47;9.65;;;3.60;;
60917;SDS011;46792;38.854;-9.384;2022-11-20T01:34:47;15.85;;;2.90;;
60917;SDS011;46792;38.854;-9.384;2022-11-20T01:36:48;7.53;;;2.40;;
60917;SDS011;46792;38.854;-9.384;2022-11-20T01:41:28;14.57;;;2.80;;
60917;SDS011;46792;38.854;-9.384;2022-11-20T01:53:24;17.85;;;3.42;;
60917;SDS011;46792;38.854;-9.384;2022-11-20T01:55:29;20.30;;;3.50;;
60917;SDS011;46792;38.854;-9.384;2022-11-20T01:57:33;15.45;;;3.50;;
60917;SDS011;46792;38.854;-9.384;2022-11-20T01:59:37;13.85;;;4.30;;
60917;SDS011;46792;38.854;-9.384;2022-11-20T02:01:43;33.58;;;4.80;;
60917;SDS011;46792;38.854;-9.384;2022-11-20T02:03:44;23.55;;;4.03;;
60917;SDS011;46792;38.854;-9.384;2022-11-20T02:05:46;30.02;;;4.63;;
60917;SDS011;46792;38.854;-9.384;2022-11-20T02:08:08;19.35;;;4.35;;
60917;SDS011;46792;38.854;-9.384;2022-11-20T02:10:08;25.73;;;4.28;;
60917;SDS011;46792;38.854;-9.384;2022-11-20T02:12:09;29.67;;;5.68;;
60917;SDS011;46792;38.854;-9.384;2022-11-20T02:14:30;21.80;;;4.47;;
60917;SDS011;46792;38.854;-9.384;2022-11-20T02:16:49;19.63;;;4.32;;
60917;SDS011;46792;38.854;-9.384;2022-11-20T02:18:51;25.27;;;4.53;;
60917;SDS011;46792;38.854;-9.384;2022-11-20T02:20:57;16.38;;;4.55;;
60917;SDS011;46792;38.854;-9.384;2022-11-20T02:23:07;19.83;;;3.38;;
60917;SDS011;46792;38.854;-9.384;2022-11-20T02:25:12;27.40;;;3.83;;
60917;SDS011;46792;38.854;-9.384;2022-11-20T02:27:15;26.95;;;4.88;;
60917;SDS011;46792;38.854;-9.384;2022-11-20T02:29:17;17.98;;;4.10;;
60917;SDS011;46792;38.854;-9.384;2022-11-20T02:31:26;10.70;;;3.45;;
60917;SDS011;46792;38.854;-9.384;2022-11-20T02:33:27;26.70;;;4.78;;
60917;SDS011;46792;38.854;-9.384;2022-11-20T02:37:30;31.50;;;4.50;;
60917;SDS011;46792;38.854;-9.384;2022-11-20T02:39:34;25.85;;;4.07;;
60917;SDS011;46792;38.854;-9.384;2022-11-20T02:41:53;20.95;;;4.68;;
60917;SDS011;46792;38.854;-9.384;2022-11-20T02:44:14;28.38;;;4.57;;
60917;SDS011;46792;38.854;-9.384;2022-11-20T02:46:33;21.70;;;4.18;;
60917;SDS011;46792;38.854;-9.384;2022-11-20T02:48:34;19.25;;;5.22;;
60917;SDS011;46792;38.854;-9.384;2022-11-20T02:50:38;21.10;;;4.25;;
60917;SDS011;46792;38.854;-9.384;2022-11-20T02:58:00;13.25;;;3.92;;
60917;SDS011;46792;38.854;-9.384;2022-11-20T03:02:35;17.65;;;3.33;;
60917;SDS011;46792;38.854;-9.384;2022-11-20T03:04:36;14.32;;;3.78;;
60917;SDS011;46792;38.854;-9.384;2022-11-20T03:06:37;19.13;;;3.22;;
60917;SDS011;46792;38.854;-9.384;2022-11-20T03:08:37;21.52;;;4.43;;
60917;SDS011;46792;38.854;-9.384;2022-11-20T03:10:38;22.15;;;4.78;;
60917;SDS011;46792;38.854;-9.384;2022-11-20T03:12:38;15.27;;;3.53;;
60917;SDS011;46792;38.854;-9.384;2022-11-20T03:14:39;15.75;;;3.53;;
60917;SDS011;46792;38.854;-9.384;2022-11-20T03:16:39;17.10;;;3.40;;
60917;SDS011;46792;38.854;-9.384;2022-11-20T03:18:40;12.88;;;2.92;;
60917;SDS011;46792;38.854;-9.384;2022-11-20T03:21:01;15.40;;;3.45;;
60917;SDS011;46792;38.854;-9.384;2022-11-20T03:23:01;18.30;;;4.20;;
60917;SDS011;46792;38.854;-9.384;2022-11-20T03:25:02;19.85;;;3.25;;
60917;SDS011;46792;38.854;-9.384;2022-11-20T03:27:03;8.77;;;3.08;;
60917;SDS011;46792;38.854;-9.384;2022-11-20T03:29:04;23.17;;;4.47;;
60917;SDS011;46792;38.854;-9.384;2022-11-20T03:31:08;17.88;;;3.53;;
60917;SDS011;46792;38.854;-9.384;2022-11-20T03:33:11;26.25;;;3.92;;
60917;SDS011;46792;38.854;-9.384;2022-11-20T03:35:12;13.70;;;2.90;;
60917;SDS011;46792;38.854;-9.384;2022-11-20T03:37:12;16.10;;;3.25;;
60917;SDS011;46792;38.854;-9.384;2022-11-20T03:39:13;15.00;;;3.00;;
60917;SDS011;46792;38.854;-9.384;2022-11-20T03:41:17;13.18;;;2.83;;
60917;SDS011;46792;38.854;-9.384;2022-11-20T03:46:29;8.98;;;2.05;;
60917;SDS011;46792;38.854;-9.384;2022-11-20T03:48:30;17.50;;;2.88;;
60917;SDS011;46792;38.854;-9.384;2022-11-20T03:50:30;11.45;;;2.30;;
60917;SDS011;46792;38.854;-9.384;2022-11-20T03:55:27;7.95;;;2.55;;
60917;SDS011;46792;38.854;-9.384;2022-11-20T04:00:05;10.77;;;2.92;;
60917;SDS011;46792;38.854;-9.384;2022-11-20T04:02:06;17.60;;;2.97;;
60917;SDS011;46792;38.854;-9.384;2022-11-20T04:04:07;9.48;;;2.45;;
60917;SDS011;46792;38.854;-9.384;2022-11-20T04:06:11;9.95;;;2.03;;
60917;SDS011;46792;38.854;-9.384;2022-11-20T04:08:36;13.38;;;2.85;;
60917;SDS011;46792;38.854;-9.384;2022-11-20T04:10:56;12.98;;;2.78;;
60917;SDS011;46792;38.854;-9.384;2022-11-20T04:13:15;9.93;;;2.28;;
60917;SDS011;46792;38.854;-9.384;2022-11-20T04:15:29;17.15;;;3.30;;
60917;SDS011;46792;38.854;-9.384;2022-11-20T04:17:29;15.55;;;2.63;;
60917;SDS011;46792;38.854;-9.384;2022-11-20T04:19:48;22.05;;;3.22;;
60917;SDS011;46792;38.854;-9.384;2022-11-20T04:21:49;15.60;;;2.72;;
60917;SDS011;46792;38.854;-9.384;2022-11-20T04:23:53;13.57;;;3.10;;
60917;SDS011;46792;38.854;-9.384;2022-11-20T04:27:55;19.35;;;4.07;;
60917;SDS011;46792;38.854;-9.384;2022-11-20T04:29:55;20.00;;;3.17;;
60917;SDS011;46792;38.854;-9.384;2022-11-20T04:37:56;17.40;;;4.72;;
60917;SDS011;46792;38.854;-9.384;2022-11-20T04:39:56;9.68;;;3.10;;
60917;SDS011;46792;38.854;-9.384;2022-11-20T04:41:57;12.93;;;3.15;;
60917;SDS011;46792;38.854;-9.384;2022-11-20T04:44:16;15.25;;;2.97;;
60917;SDS011;46792;38.854;-9.384;2022-11-20T04:46:17;10.65;;;2.55;;
60917;SDS011;46792;38.854;-9.384;2022-11-20T04:48:19;10.88;;;2.70;;
60917;SDS011;46792;38.854;-9.384;2022-11-20T04:50:20;14.15;;;2.80;;
60917;SDS011;46792;38.854;-9.384;2022-11-20T04:52:21;14.30;;;2.95;;
60917;SDS011;46792;38.854;-9.384;2022-11-20T04:54:21;24.73;;;2.83;;
60917;SDS011;46792;38.854;-9.384;2022-11-20T04:56:22;12.63;;;3.08;;
60917;SDS011;46792;38.854;-9.384;2022-11-20T04:58:25;24.65;;;5.18;;
60917;SDS011;46792;38.854;-9.384;2022-11-20T05:00:25;12.73;;;2.58;;
60917;SDS011;46792;38.854;-9.384;2022-11-20T05:02:26;16.45;;;3.50;;
60917;SDS011;46792;38.854;-9.384;2022-11-20T05:04:26;16.45;;;3.40;;
60917;SDS011;46792;38.854;-9.384;2022-11-20T05:06:27;13.68;;;2.88;;
60917;SDS011;46792;38.854;-9.384;2022-11-20T05:08:28;19.00;;;2.75;;
60917;SDS011;46792;38.854;-9.384;2022-11-20T05:10:29;17.77;;;3.00;;
60917;SDS011;46792;38.854;-9.384;2022-11-20T05:12:29;18.58;;;4.05;;
60917;SDS011;46792;38.854;-9.384;2022-11-20T05:14:31;19.05;;;3.22;;
60917;SDS011;46792;38.854;-9.384;2022-11-20T05:16:33;16.88;;;4.07;;
60917;SDS011;46792;38.854;-9.384;2022-11-20T05:18:35;11.70;;;3.87;;
60917;SDS011;46792;38.854;-9.384;2022-11-20T05:20:56;19.02;;;3.05;;
60917;SDS011;46792;38.854;-9.384;2022-11-20T05:22:57;17.92;;;3.47;;
60917;SDS011;46792;38.854;-9.384;2022-11-20T05:24:58;14.32;;;3.25;;
60917;SDS011;46792;38.854;-9.384;2022-11-20T05:26:58;27.60;;;5.03;;
60917;SDS011;46792;38.854;-9.384;2022-11-20T05:29:18;19.70;;;4.00;;
60917;SDS011;46792;38.854;-9.384;2022-11-20T05:31:19;21.98;;;4.28;;
60917;SDS011;46792;38.854;-9.384;2022-11-20T05:33:26;24.30;;;4.20;;
60917;SDS011;46792;38.854;-9.384;2022-11-20T05:35:26;26.33;;;4.60;;
60917;SDS011;46792;38.854;-9.384;2022-11-20T05:37:27;19.23;;;3.80;;
60917;SDS011;46792;38.854;-9.384;2022-11-20T05:39:28;21.58;;;3.80;;
60917;SDS011;46792;38.854;-9.384;2022-11-20T05:41:28;16.17;;;3.80;;
60917;SDS011;46792;38.854;-9.384;2022-11-20T05:48:27;17.00;;;4.03;;
60917;SDS011;46792;38.854;-9.384;2022-11-20T05:50:32;26.35;;;4.65;;
60917;SDS011;46792;38.854;-9.384;2022-11-20T05:52:35;28.92;;;3.85;;
60917;SDS011;46792;38.854;-9.384;2022-11-20T05:57:16;14.43;;;3.72;;
60917;SDS011;46792;38.854;-9.384;2022-11-20T05:59:16;17.63;;;4.30;;
60917;SDS011;46792;38.854;-9.384;2022-11-20T06:01:21;15.75;;;3.78;;
60917;SDS011;46792;38.854;-9.384;2022-11-20T06:03:23;15.13;;;3.53;;
60917;SDS011;46792;38.854;-9.384;2022-11-20T06:05:24;17.75;;;3.72;;
60917;SDS011;46792;38.854;-9.384;2022-11-20T06:07:25;23.85;;;3.65;;
60917;SDS011;46792;38.854;-9.384;2022-11-20T06:12:03;28.40;;;3.85;;
60917;SDS011;46792;38.854;-9.384;2022-11-20T06:14:04;19.40;;;4.00;;
60917;SDS011;46792;38.854;-9.384;2022-11-20T06:16:06;18.40;;;4.05;;
60917;SDS011;46792;38.854;-9.384;2022-11-20T06:21:07;23.23;;;4.82;;
60917;SDS011;46792;38.854;-9.384;2022-11-20T06:23:09;19.27;;;3.58;;
60917;SDS011;46792;38.854;-9.384;2022-11-20T06:25:10;20.20;;;3.85;;
60917;SDS011;46792;38.854;-9.384;2022-11-20T06:27:15;32.08;;;4.00;;
60917;SDS011;46792;38.854;-9.384;2022-11-20T06:31:54;27.63;;;5.07;;
60917;SDS011;46792;38.854;-9.384;2022-11-20T06:33:54;27.50;;;4.18;;
60917;SDS011;46792;38.854;-9.384;2022-11-20T06:35:58;17.73;;;3.53;;
60917;SDS011;46792;38.854;-9.384;2022-11-20T06:38:18;21.95;;;3.22;;
60917;SDS011;46792;38.854;-9.384;2022-11-20T06:40:19;21.38;;;3.72;;
60917;SDS011;46792;38.854;-9.384;2022-11-20T06:42:19;21.83;;;4.00;;
60917;SDS011;46792;38.854;-9.384;2022-11-20T06:44:20;20.00;;;3.22;;
60917;SDS011;46792;38.854;-9.384;2022-11-20T06:46:22;21.25;;;3.97;;
60917;SDS011;46792;38.854;-9.384;2022-11-20T06:48:41;11.30;;;2.90;;
60917;SDS011;46792;38.854;-9.384;2022-11-20T06:50:42;16.90;;;3.95;;
60917;SDS011;46792;38.854;-9.384;2022-11-20T06:52:42;32.38;;;3.75;;
60917;SDS011;46792;38.854;-9.384;2022-11-20T06:54:43;11.38;;;3.17;;
60917;SDS011;46792;38.854;-9.384;2022-11-20T06:56:46;18.10;;;3.78;;
60917;SDS011;46792;38.854;-9.384;2022-11-20T06:58:48;15.35;;;2.72;;
60917;SDS011;46792;38.854;-9.384;2022-11-20T07:00:48;15.82;;;3.20;;
60917;SDS011;46792;38.854;-9.384;2022-11-20T07:06:11;17.88;;;3.38;;
60917;SDS011;46792;38.854;-9.384;2022-11-20T07:08:11;18.23;;;3.00;;
60917;SDS011;46792;38.854;-9.384;2022-11-20T07:10:12;18.90;;;3.42;;
60917;SDS011;46792;38.854;-9.384;2022-11-20T07:12:13;19.13;;;4.63;;
60917;SDS011;46792;38.854;-9.384;2022-11-20T07:14:13;13.65;;;4.38;;
60917;SDS011;46792;38.854;-9.384;2022-11-20T07:16:14;12.35;;;3.45;;
60917;SDS011;46792;38.854;-9.384;2022-11-20T07:18:14;15.95;;;3.00;;
60917;SDS011;46792;38.854;-9.384;2022-11-20T07:20:34;15.93;;;3.15;;
60917;SDS011;46792;38.854;-9.384;2022-11-20T07:22:34;16.13;;;3.13;;
60917;SDS011;46792;38.854;-9.384;2022-11-20T07:24:35;13.93;;;2.20;;
60917;SDS011;46792;38.854;-9.384;2022-11-20T07:26:35;9.35;;;2.40;;
60917;SDS011;46792;38.854;-9.384;2022-11-20T07:28:36;12.27;;;2.55;;
60917;SDS011;46792;38.854;-9.384;2022-11-20T07:30:37;15.30;;;2.75;;
60917;SDS011;46792;38.854;-9.384;2022-11-20T07:32:57;15.13;;;3.72;;
60917;SDS011;46792;38.854;-9.384;2022-11-20T07:34:57;11.50;;;2.45;;
60917;SDS011;46792;38.854;-9.384;2022-11-20T07:36:58;13.63;;;3.13;;
60917;SDS011;46792;38.854;-9.384;2022-11-20T07:38:58;14.63;;;3.17;;
60917;SDS011;46792;38.854;-9.384;2022-11-20T07:41:17;23.02;;;3.65;;
60917;SDS011;46792;38.854;-9.384;2022-11-20T07:43:36;24.98;;;4.60;;
60917;SDS011;46792;38.854;-9.384;2022-11-20T07:45:37;20.67;;;3.38;;
60917;SDS011;46792;38.854;-9.384;2022-11-20T07:47:38;24.35;;;4.10;;
60917;SDS011;46792;38.854;-9.384;2022-11-20T07:49:38;25.10;;;3.38;;
60917;SDS011;46792;38.854;-9.384;2022-11-20T07:51:39;14.68;;;3.28;;
60917;SDS011;46792;38.854;-9.384;2022-11-20T07:56:17;30.42;;;6.18;;
60917;SDS011;46792;38.854;-9.384;2022-11-20T07:58:23;13.65;;;3.92;;
60917;SDS011;46792;38.854;-9.384;2022-11-20T08:00:24;30.45;;;3.67;;
60917;SDS011;46792;38.854;-9.384;2022-11-20T08:02:26;19.77;;;3.75;;
60917;SDS011;46792;38.854;-9.384;2022-11-20T08:04:30;27.25;;;3.97;;
60917;SDS011;46792;38.854;-9.384;2022-11-20T08:06:32;13.93;;;3.40;;
60917;SDS011;46792;38.854;-9.384;2022-11-20T08:08:32;20.00;;;3.40;;
60917;SDS011;46792;38.854;-9.384;2022-11-20T08:10:33;25.23;;;3.92;;
60917;SDS011;46792;38.854;-9.384;2022-11-20T08:12:43;23.15;;;3.88;;
60917;SDS011;46792;38.854;-9.384;2022-11-20T08:15:36;23.17;;;4.03;;
60917;SDS011;46792;38.854;-9.384;2022-11-20T08:17:37;35.95;;;4.70;;
60917;SDS011;46792;38.854;-9.384;2022-11-20T08:19:38;25.25;;;4.70;;
60917;SDS011;46792;38.854;-9.384;2022-11-20T08:25:02;34.55;;;4.07;;
60917;SDS011;46792;38.854;-9.384;2022-11-20T08:27:03;24.75;;;5.18;;
60917;SDS011;46792;38.854;-9.384;2022-11-20T08:29:03;36.97;;;4.07;;
60917;SDS011;46792;38.854;-9.384;2022-11-20T08:31:05;28.15;;;4.50;;
60917;SDS011;46792;38.854;-9.384;2022-11-20T08:33:07;30.13;;;4.88;;
60917;SDS011;46792;38.854;-9.384;2022-11-20T08:35:08;23.15;;;4.32;;
60917;SDS011;46792;38.854;-9.384;2022-11-20T08:39:28;16.40;;;4.15;;
60917;SDS011;46792;38.854;-9.384;2022-11-20T08:41:29;29.88;;;5.60;;
60917;SDS011;46792;38.854;-9.384;2022-11-20T08:43:33;25.90;;;3.95;;
60917;SDS011;46792;38.854;-9.384;2022-11-20T08:45:33;25.92;;;4.28;;
60917;SDS011;46792;38.854;-9.384;2022-11-20T08:47:34;25.20;;;4.82;;
60917;SDS011;46792;38.854;-9.384;2022-11-20T08:49:34;22.60;;;4.10;;
60917;SDS011;46792;38.854;-9.384;2022-11-20T08:51:35;22.00;;;4.53;;
60917;SDS011;46792;38.854;-9.384;2022-11-20T08:53:36;18.42;;;3.55;;
60917;SDS011;46792;38.854;-9.384;2022-11-20T08:55:37;19.48;;;3.83;;
60917;SDS011;46792;38.854;-9.384;2022-11-20T08:57:39;20.58;;;3.85;;
60917;SDS011;46792;38.854;-9.384;2022-11-20T08:59:40;18.50;;;3.63;;
60917;SDS011;46792;38.854;-9.384;2022-11-20T09:01:59;25.83;;;4.03;;
60917;SDS011;46792;38.854;-9.384;2022-11-20T09:03:59;34.42;;;4.72;;
60917;SDS011;46792;38.854;-9.384;2022-11-20T09:06:01;27.20;;;4.90;;
60917;SDS011;46792;38.854;-9.384;2022-11-20T09:08:06;26.52;;;4.70;;
60917;SDS011;46792;38.854;-9.384;2022-11-20T09:12:27;30.77;;;3.92;;
60917;SDS011;46792;38.854;-9.384;2022-11-20T09:19:25;21.35;;;4.35;;
60917;SDS011;46792;38.854;-9.384;2022-11-20T09:21:26;13.55;;;3.90;;
60917;SDS011;46792;38.854;-9.384;2022-11-20T09:28:25;16.13;;;3.08;;
60917;SDS011;46792;38.854;-9.384;2022-11-20T09:33:07;14.75;;;3.67;;
60917;SDS011;46792;38.854;-9.384;2022-11-20T09:35:08;18.90;;;3.50;;
60917;SDS011;46792;38.854;-9.384;2022-11-20T09:37:11;17.00;;;2.90;;
60917;SDS011;46792;38.854;-9.384;2022-11-20T09:39:12;14.43;;;3.58;;
60917;SDS011;46792;38.854;-9.384;2022-11-20T09:41:25;13.10;;;2.03;;
60917;SDS011;46792;38.854;-9.384;2022-11-20T09:55:08;8.43;;;2.65;;
60917;SDS011;46792;38.854;-9.384;2022-11-20T09:57:32;9.20;;;3.15;;
60917;SDS011;46792;38.854;-9.384;2022-11-20T09:59:40;12.85;;;2.88;;
60917;SDS011;46792;38.854;-9.384;2022-11-20T10:01:47;14.25;;;2.15;;
60917;SDS011;46792;38.854;-9.384;2022-11-20T10:06:12;14.57;;;2.20;;
60917;SDS011;46792;38.854;-9.384;2022-11-20T10:08:24;10.13;;;2.05;;
60917;SDS011;46792;38.854;-9.384;2022-11-20T10:10:32;18.30;;;1.98;;
60917;SDS011;46792;38.854;-9.384;2022-11-20T10:12:52;8.18;;;2.22;;
60917;SDS011;46792;38.854;-9.384;2022-11-20T10:29:34;11.70;;;1.67;;
60917;SDS011;46792;38.854;-9.384;2022-11-20T10:31:40;9.98;;;1.38;;
60917;SDS011;46792;38.854;-9.384;2022-11-20T10:33:46;13.18;;;3.17;;
60917;SDS011;46792;38.854;-9.384;2022-11-20T10:36:00;8.85;;;2.05;;
60917;SDS011;46792;38.854;-9.384;2022-11-20T10:38:06;12.40;;;1.90;;
60917;SDS011;46792;38.854;-9.384;2022-11-20T10:40:32;17.48;;;2.30;;
60917;SDS011;46792;38.854;-9.384;2022-11-20T10:45:58;7.15;;;1.20;;
60917;SDS011;46792;38.854;-9.384;2022-11-20T10:50:14;12.48;;;3.03;;
60917;SDS011;46792;38.854;-9.384;2022-11-20T11:00:14;5.03;;;1.70;;
60917;SDS011;46792;38.854;-9.384;2022-11-20T11:07:35;8.07;;;1.60;;
60917;SDS011;46792;38.854;-9.384;2022-11-20T11:09:39;14.23;;;1.73;;
60917;SDS011;46792;38.854;-9.384;2022-11-20T11:11:47;6.28;;;1.33;;
60917;SDS011;46792;38.854;-9.384;2022-11-20T11:13:48;8.52;;;1.80;;
60917;SDS011;46792;38.854;-9.384;2022-11-20T11:15:49;11.68;;;2.08;;
60917;SDS011;46792;38.854;-9.384;2022-11-20T11:17:50;12.90;;;1.55;;
60917;SDS011;46792;38.854;-9.384;2022-11-20T11:22:16;6.35;;;1.48;;
60917;SDS011;46792;38.854;-9.384;2022-11-20T11:24:25;6.97;;;1.40;;
60917;SDS011;46792;38.854;-9.384;2022-11-20T11:26:27;7.03;;;1.35;;
60917;SDS011;46792;38.854;-9.384;2022-11-20T11:36:19;4.07;;;1.67;;
60917;SDS011;46792;38.854;-9.384;2022-11-20T11:38:33;5.90;;;1.30;;
60917;SDS011;46792;38.854;-9.384;2022-11-20T11:40:36;7.03;;;1.67;;
60917;SDS011;46792;38.854;-9.384;2022-11-20T11:42:43;8.98;;;1.40;;
60917;SDS011;46792;38.854;-9.384;2022-11-20T11:44:47;8.77;;;1.35;;
60917;SDS011;46792;38.854;-9.384;2022-11-20T11:47:25;5.88;;;1.50;;
60917;SDS011;46792;38.854;-9.384;2022-11-20T11:49:48;9.18;;;1.77;;
60917;SDS011;46792;38.854;-9.384;2022-11-20T11:54:16;10.35;;;2.03;;
60917;SDS011;46792;38.854;-9.384;2022-11-20T11:56:20;8.02;;;1.70;;
60917;SDS011;46792;38.854;-9.384;2022-11-20T11:58:44;12.82;;;1.65;;
60917;SDS011;46792;38.854;-9.384;2022-11-20T12:00:49;5.72;;;1.33;;
60917;SDS011;46792;38.854;-9.384;2022-11-20T12:03:17;5.68;;;1.38;;
60917;SDS011;46792;38.854;-9.384;2022-11-20T12:05:27;5.57;;;1.98;;
60917;SDS011;46792;38.854;-9.384;2022-11-20T12:07:43;7.40;;;1.50;;
60917;SDS011;46792;38.854;-9.384;2022-11-20T12:09:49;4.25;;;1.17;;
60917;SDS011;46792;38.854;-9.384;2022-11-20T12:11:58;5.75;;;1.35;;
60917;SDS011;46792;38.854;-9.384;2022-11-20T12:14:17;3.72;;;1.25;;
60917;SDS011;46792;38.854;-9.384;2022-11-20T12:16:24;5.93;;;1.70;;
60917;SDS011;46792;38.854;-9.384;2022-11-20T12:18:24;7.10;;;1.23;;
60917;SDS011;46792;38.854;-9.384;2022-11-20T12:20:27;8.25;;;1.38;;
60917;SDS011;46792;38.854;-9.384;2022-11-20T12:22:39;10.02;;;1.40;;
60917;SDS011;46792;38.854;-9.384;2022-11-20T12:39:42;6.15;;;1.10;;
60917;SDS011;46792;38.854;-9.384;2022-11-20T12:41:48;4.72;;;1.52;;
60917;SDS011;46792;38.854;-9.384;2022-11-20T12:46:48;7.35;;;1.67;;
60917;SDS011;46792;38.854;-9.384;2022-11-20T13:06:48;5.55;;;1.13;;
60917;SDS011;46792;38.854;-9.384;2022-11-20T13:11:30;5.20;;;1.48;;
60917;SDS011;46792;38.854;-9.384;2022-11-20T13:15:50;5.47;;;0.95;;
60917;SDS011;46792;38.854;-9.384;2022-11-20T13:18:03;6.35;;;1.30;;
60917;SDS011;46792;38.854;-9.384;2022-11-20T13:20:12;9.13;;;1.38;;
60917;SDS011;46792;38.854;-9.384;2022-11-20T13:22:23;10.20;;;1.50;;
60917;SDS011;46792;38.854;-9.384;2022-11-20T13:24:26;5.22;;;1.40;;
60917;SDS011;46792;38.854;-9.384;2022-11-20T13:26:30;10.00;;;1.35;;
60917;SDS011;46792;38.854;-9.384;2022-11-20T13:28:31;11.95;;;1.80;;
60917;SDS011;46792;38.854;-9.384;2022-11-20T13:30:32;13.20;;;2.22;;
60917;SDS011;46792;38.854;-9.384;2022-11-20T13:32:35;9.27;;;2.35;;
60917;SDS011;46792;38.854;-9.384;2022-11-20T13:40:12;7.97;;;1.85;;
60917;SDS011;46792;38.854;-9.384;2022-11-20T13:43:01;7.90;;;1.88;;
60917;SDS011;46792;38.854;-9.384;2022-11-20T13:45:28;6.20;;;1.50;;
60917;SDS011;46792;38.854;-9.384;2022-11-20T13:47:30;6.47;;;1.13;;
60917;SDS011;46792;38.854;-9.384;2022-11-20T13:51:53;5.82;;;1.40;;
60917;SDS011;46792;38.854;-9.384;2022-11-20T13:54:09;13.15;;;1.42;;
60917;SDS011;46792;38.854;-9.384;2022-11-20T14:01:17;5.72;;;1.65;;
60917;SDS011;46792;38.854;-9.384;2022-11-20T14:03:20;10.93;;;1.83;;
60917;SDS011;46792;38.854;-9.384;2022-11-20T14:05:23;11.82;;;1.88;;
60917;SDS011;46792;38.854;-9.384;2022-11-20T14:07:25;5.20;;;1.67;;
60917;SDS011;46792;38.854;-9.384;2022-11-20T14:09:33;12.35;;;1.48;;
60917;SDS011;46792;38.854;-9.384;2022-11-20T14:11:34;4.68;;;1.27;;
60917;SDS011;46792;38.854;-9.384;2022-11-20T14:13:34;9.95;;;1.88;;
60917;SDS011;46792;38.854;-9.384;2022-11-20T14:15:57;8.02;;;2.00;;
60917;SDS011;46792;38.854;-9.384;2022-11-20T14:17:59;16.13;;;2.67;;
60917;SDS011;46792;38.854;-9.384;2022-11-20T14:20:12;13.77;;;2.15;;
60917;SDS011;46792;38.854;-9.384;2022-11-20T14:22:25;13.73;;;1.73;;
60917;SDS011;46792;38.854;-9.384;2022-11-20T14:27:04;15.63;;;2.97;;
60917;SDS011;46792;38.854;-9.384;2022-11-20T14:29:14;9.10;;;1.45;;
60917;SDS011;46792;38.854;-9.384;2022-11-20T14:36:32;7.07;;;1.65;;
60917;SDS011;46792;38.854;-9.384;2022-11-20T14:38:35;5.35;;;1.77;;
60917;SDS011;46792;38.854;-9.384;2022-11-20T14:40:36;10.35;;;2.15;;
60917;SDS011;46792;38.854;-9.384;2022-11-20T14:42:37;17.02;;;2.72;;
60917;SDS011;46792;38.854;-9.384;2022-11-20T14:44:43;6.68;;;1.60;;
60917;SDS011;46792;38.854;-9.384;2022-11-20T14:46:45;8.75;;;1.58;;
60917;SDS011;46792;38.854;-9.384;2022-11-20T14:48:49;5.10;;;1.15;;
60917;SDS011;46792;38.854;-9.384;2022-11-20T14:51:11;17.37;;;2.20;;
60917;SDS011;46792;38.854;-9.384;2022-11-20T14:53:23;7.20;;;2.10;;
60917;SDS011;46792;38.854;-9.384;2022-11-20T14:55:32;9.18;;;1.65;;
60917;SDS011;46792;38.854;-9.384;2022-11-20T14:57:56;6.22;;;1.40;;
60917;SDS011;46792;38.854;-9.384;2022-11-20T15:00:18;9.27;;;1.25;;
60917;SDS011;46792;38.854;-9.384;2022-11-20T15:02:20;7.63;;;1.85;;
60917;SDS011;46792;38.854;-9.384;2022-11-20T15:04:22;7.13;;;1.00;;
60917;SDS011;46792;38.854;-9.384;2022-11-20T15:06:25;6.30;;;0.93;;
60917;SDS011;46792;38.854;-9.384;2022-11-20T15:08:26;7.30;;;1.90;;
60917;SDS011;46792;38.854;-9.384;2022-11-20T15:10:27;9.25;;;1.48;;
60917;SDS011;46792;38.854;-9.384;2022-11-20T15:12:54;6.82;;;1.45;;
60917;SDS011;46792;38.854;-9.384;2022-11-20T15:14:57;4.45;;;1.80;;
60917;SDS011;46792;38.854;-9.384;2022-11-20T15:16:58;4.05;;;1.15;;
60917;SDS011;46792;38.854;-9.384;2022-11-20T15:18:59;10.20;;;1.15;;
60917;SDS011;46792;38.854;-9.384;2022-11-20T15:21:03;6.60;;;1.40;;
60917;SDS011;46792;38.854;-9.384;2022-11-20T15:23:14;6.85;;;1.08;;
60917;SDS011;46792;38.854;-9.384;2022-11-20T15:25:17;6.30;;;1.17;;
60917;SDS011;46792;38.854;-9.384;2022-11-20T15:27:19;7.00;;;1.02;;
60917;SDS011;46792;38.854;-9.384;2022-11-20T15:29:19;7.88;;;1.52;;
60917;SDS011;46792;38.854;-9.384;2022-11-20T15:31:22;9.93;;;1.23;;
60917;SDS011;46792;38.854;-9.384;2022-11-20T15:33:23;5.22;;;2.05;;
60917;SDS011;46792;38.854;-9.384;2022-11-20T15:35:24;15.32;;;3.28;;
60917;SDS011;46792;38.854;-9.384;2022-11-20T15:42:25;4.25;;;0.95;;